createdAt,value
2018-08-18T00:02:22.895Z,83.10
2018-08-18T00:04:54.402Z,82.60
2018-08-18T00:07:26.708Z,84.20
2018-08-18T00:09:57.830Z,83.80
2018-08-18T00:12:29.893Z,83.70
2018-08-18T00:15:01.643Z,83.20
2018-08-18T00:20:17.001Z,84.10
2018-08-18T00:22:49.340Z,84.70
2018-08-18T00:25:19.943Z,84.50
2018-08-18T00:27:50.908Z,85.00
2018-08-18T00:30:24.969Z,87.20
2018-08-18T00:35:50.030Z,89.00
2018-08-18T00:38:19.085Z,90.10
2018-08-18T00:40:47.912Z,90.30
2018-08-18T00:43:17.180Z,90.20
2018-08-18T00:45:45.984Z,90.00
2018-08-18T00:48:15.205Z,89.30
2018-08-18T00:50:44.951Z,89.70
2018-08-18T00:53:15.242Z,89.80
2018-08-18T00:55:44.281Z,90.40
2018-08-18T00:58:18.397Z,89.60
2018-08-18T01:00:51.861Z,88.90
2018-08-18T01:03:20.709Z,87.30
2018-08-18T01:05:49.641Z,88.60
2018-08-18T01:08:18.544Z,89.40
2018-08-18T01:10:47.640Z,88.70
2018-08-18T01:13:16.796Z,90.10
2018-08-18T01:15:45.961Z,89.60
2018-08-18T01:18:14.897Z,87.90
2018-08-18T01:20:43.905Z,87.90
2018-08-18T01:23:13.521Z,86.80
2018-08-18T01:25:42.962Z,87.10
2018-08-18T01:28:12.813Z,86.90
2018-08-18T01:30:42.757Z,87.10
2018-08-18T01:33:15.862Z,87.00
2018-08-18T01:35:45.321Z,86.30
2018-08-18T01:38:20.220Z,86.80
2018-08-18T01:40:54.872Z,86.40
2018-08-18T01:43:25.947Z,86.20
2018-08-18T01:45:56.585Z,88.60
2018-08-18T01:48:27.455Z,87.00
2018-08-18T01:51:09.026Z,88.00
2018-08-18T01:53:39.848Z,88.50
2018-08-18T01:56:11.337Z,89.70
2018-08-18T01:58:43.686Z,90.00
2018-08-18T02:01:17.389Z,89.10
2018-08-18T02:03:47.495Z,89.10
2018-08-18T02:06:19.045Z,88.20
2018-08-18T02:08:59.526Z,89.70
2018-08-18T02:11:30.972Z,89.70
2018-08-18T02:14:03.422Z,87.90
2018-08-18T02:16:35.831Z,88.60
2018-08-18T02:19:06.972Z,88.90
2018-08-18T02:21:38.626Z,87.70
2018-08-18T02:24:10.850Z,87.80
2018-08-18T02:26:42.403Z,89.30
2018-08-18T02:29:13.290Z,89.00
2018-08-18T02:31:44.011Z,90.40
2018-08-18T02:34:14.649Z,89.60
2018-08-18T02:36:49.985Z,88.70
2018-08-18T02:39:22.383Z,89.50
2018-08-18T02:42:05.968Z,88.40
2018-08-18T02:44:36.613Z,88.80
2018-08-18T02:47:07.562Z,90.80
2018-08-18T02:49:42.987Z,90.50
2018-08-18T02:52:24.886Z,90.70
2018-08-18T02:55:01.078Z,91.10
2018-08-18T02:57:34.283Z,90.70
2018-08-18T03:00:07.934Z,91.00
2018-08-18T03:02:39.687Z,91.40
2018-08-18T03:05:12.440Z,90.80
2018-08-18T03:07:48.802Z,90.40
2018-08-18T03:10:27.702Z,90.10
2018-08-18T03:13:02.471Z,90.10
2018-08-18T03:16:11.745Z,91.60
2018-08-18T03:18:49.144Z,91.50
2018-08-18T03:21:18.361Z,91.10
2018-08-18T03:23:58.654Z,92.00
2018-08-18T03:26:35.945Z,91.50
2018-08-18T03:29:05.397Z,91.30
2018-08-18T03:31:34.260Z,91.50
2018-08-18T03:34:03.682Z,92.10
2018-08-18T03:36:35.748Z,92.30
2018-08-18T03:39:08.082Z,93.00
2018-08-18T03:41:37.225Z,92.00
2018-08-18T03:44:06.113Z,91.60
2018-08-18T03:46:35.125Z,91.60
2018-08-18T03:49:03.972Z,91.50
2018-08-18T03:51:39.057Z,91.00
2018-08-18T03:54:14.977Z,91.00
2018-08-18T03:56:44.194Z,91.00
2018-08-18T03:59:13.028Z,91.20
2018-08-18T04:01:53.372Z,91.50
2018-08-18T04:04:23.982Z,91.70
2018-08-18T04:06:54.255Z,91.70
2018-08-18T04:09:24.491Z,91.70
2018-08-18T04:11:53.920Z,91.30
2018-08-18T04:14:43.634Z,91.30
2018-08-18T04:17:24.434Z,91.20
2018-08-18T04:19:53.409Z,91.10
2018-08-18T04:22:23.200Z,90.60
2018-08-18T04:24:52.285Z,91.00
2018-08-18T04:27:41.758Z,91.30
2018-08-18T04:30:25.272Z,91.00
2018-08-18T04:32:56.309Z,91.00
2018-08-18T04:35:26.514Z,91.10
2018-08-18T04:37:56.257Z,91.60
2018-08-18T04:40:25.667Z,91.50
2018-08-18T04:43:00.142Z,91.00
2018-08-18T04:45:29.140Z,91.10
2018-08-18T04:47:58.217Z,90.80
2018-08-18T04:50:27.067Z,91.20
2018-08-18T04:52:56.035Z,91.30
2018-08-18T04:55:25.901Z,91.10
2018-08-18T04:57:54.931Z,90.60
2018-08-18T05:00:25.411Z,91.40
2018-08-18T05:02:58.358Z,90.50
2018-08-18T05:05:29.370Z,88.80
2018-08-18T05:08:00.185Z,89.10
2018-08-18T05:10:29.253Z,87.90
2018-08-18T05:12:58.180Z,86.90
2018-08-18T05:15:27.173Z,85.70
2018-08-18T05:17:56.135Z,84.60
2018-08-18T05:20:26.296Z,85.00
2018-08-18T05:22:57.050Z,83.00
2018-08-18T05:25:31.080Z,82.80
2018-08-18T05:28:01.109Z,82.50
2018-08-18T05:30:29.952Z,84.40
2018-08-18T05:32:58.796Z,85.00
2018-08-18T05:35:34.258Z,83.60
2018-08-18T05:38:03.223Z,82.60
2018-08-18T05:40:33.252Z,82.80
2018-08-18T05:43:02.770Z,82.70
2018-08-18T05:45:33.732Z,84.50
2018-08-18T05:48:02.756Z,82.10
2018-08-18T05:50:31.892Z,81.10
2018-08-18T05:53:23.176Z,80.80
2018-08-18T05:55:52.227Z,78.40
2018-08-18T05:58:21.187Z,78.90
2018-08-18T06:03:27.274Z,77.30
2018-08-18T06:05:57.900Z,77.30
2018-08-18T06:08:27.314Z,77.40
2018-08-18T06:10:56.197Z,74.00
2018-08-18T06:13:25.037Z,73.80
2018-08-18T06:16:08.341Z,74.40
2018-08-18T06:18:38.637Z,74.40
2018-08-18T06:21:08.006Z,74.00
2018-08-18T06:23:37.931Z,74.00
2018-08-18T06:26:07.454Z,74.70
2018-08-18T06:28:36.380Z,73.10
2018-08-18T06:31:05.317Z,77.20
2018-08-18T06:33:34.250Z,73.90
2018-08-18T06:38:37.870Z,71.90
2018-08-18T06:41:07.263Z,71.60
2018-08-18T06:43:36.161Z,70.60
2018-08-18T06:46:05.120Z,70.60
2018-08-18T06:48:36.579Z,70.60
2018-08-18T06:51:05.510Z,73.50
2018-08-18T06:53:40.220Z,72.60
2018-08-18T06:56:09.393Z,71.10
2018-08-18T06:58:38.429Z,70.80
2018-08-18T07:01:07.869Z,71.60
2018-08-18T07:03:40.651Z,71.50
2018-08-18T07:06:11.929Z,70.30
2018-08-18T07:08:46.120Z,70.40
2018-08-18T07:11:15.081Z,70.80
2018-08-18T07:13:44.559Z,69.00
2018-08-18T07:16:13.523Z,69.50
2018-08-18T07:18:42.476Z,70.60
2018-08-18T07:21:11.936Z,70.30
2018-08-18T07:23:40.879Z,71.10
2018-08-18T07:26:10.025Z,71.40
2018-08-18T07:28:39.131Z,72.10
2018-08-18T07:31:08.020Z,70.40
2018-08-18T07:33:36.815Z,70.60
2018-08-18T07:36:05.626Z,68.00
2018-08-18T07:38:34.538Z,66.20
2018-08-18T07:41:03.498Z,65.70
2018-08-18T07:43:33.748Z,66.40
2018-08-18T07:46:04.163Z,67.20
2018-08-18T07:48:32.911Z,68.00
2018-08-18T07:51:01.987Z,67.10
2018-08-18T07:53:30.884Z,66.40
2018-08-18T07:55:59.755Z,65.80
2018-08-18T07:58:28.835Z,63.80
2018-08-18T08:01:02.234Z,65.20
2018-08-18T08:03:31.385Z,65.10
2018-08-18T08:06:00.361Z,62.70
2018-08-18T08:08:34.671Z,62.40
2018-08-18T08:11:08.968Z,62.20
2018-08-18T08:13:37.796Z,65.60
2018-08-18T08:16:06.657Z,64.70
2018-08-18T08:18:35.490Z,64.90
2018-08-18T08:21:04.436Z,65.20
2018-08-18T08:23:33.274Z,65.20
2018-08-18T08:26:02.122Z,63.00
2018-08-18T08:28:31.005Z,62.40
2018-08-18T08:31:00.066Z,63.50
2018-08-18T08:33:38.296Z,62.90
2018-08-18T08:36:10.101Z,61.40
2018-08-18T08:38:51.196Z,61.00
2018-08-18T08:41:23.065Z,61.40
2018-08-18T08:43:53.134Z,61.30
2018-08-18T08:46:23.081Z,58.60
2018-08-18T08:48:55.969Z,57.00
2018-08-18T08:51:25.744Z,56.80
2018-08-18T08:53:57.284Z,57.00
2018-08-18T08:56:35.112Z,56.80
2018-08-18T08:59:04.400Z,57.00
2018-08-18T09:01:33.358Z,56.60
2018-08-18T09:04:02.515Z,55.80
2018-08-18T09:06:31.736Z,57.30
2018-08-18T09:09:00.932Z,55.90
2018-08-18T09:11:30.282Z,56.80
2018-08-18T09:14:07.673Z,55.70
2018-08-18T09:16:37.272Z,55.00
2018-08-18T09:19:07.007Z,55.50
2018-08-18T09:21:44.093Z,56.30
2018-08-18T09:24:12.981Z,56.50
2018-08-18T09:26:48.485Z,55.30
2018-08-18T09:29:17.363Z,56.30
2018-08-18T09:31:46.669Z,54.60
2018-08-18T09:34:15.608Z,54.80
2018-08-18T09:36:45.465Z,54.30
2018-08-18T09:39:20.064Z,55.60
2018-08-18T09:41:49.226Z,54.60
2018-08-18T09:44:23.525Z,53.70
2018-08-18T09:46:52.604Z,53.30
2018-08-18T09:49:21.701Z,55.80
2018-08-18T09:51:50.831Z,54.40
2018-08-18T09:54:20.057Z,54.40
2018-08-18T09:56:49.104Z,54.20
2018-08-18T09:59:18.293Z,55.70
2018-08-18T10:01:47.902Z,52.30
2018-08-18T10:04:23.407Z,52.90
2018-08-18T10:06:53.038Z,52.00
2018-08-18T10:09:22.671Z,51.30
2018-08-18T10:11:51.704Z,51.50
2018-08-18T10:14:20.690Z,53.10
2018-08-18T10:16:49.796Z,51.80
2018-08-18T10:19:18.968Z,53.80
2018-08-18T10:21:48.018Z,52.30
2018-08-18T10:24:17.279Z,54.40
2018-08-18T10:26:53.004Z,54.20
2018-08-18T10:29:22.489Z,52.60
2018-08-18T10:31:52.490Z,50.00
2018-08-18T10:34:22.666Z,50.50
2018-08-18T10:36:55.226Z,49.30
2018-08-18T10:39:24.501Z,49.00
2018-08-18T10:42:03.795Z,50.20
2018-08-18T10:44:32.951Z,51.50
2018-08-18T10:47:15.946Z,49.30
2018-08-18T10:49:55.981Z,49.70
2018-08-18T10:52:37.966Z,49.00
2018-08-18T10:55:09.440Z,51.30
2018-08-18T10:57:50.519Z,49.70
2018-08-18T11:00:20.825Z,49.40
2018-08-18T11:02:50.986Z,48.60
2018-08-18T11:05:20.671Z,50.40
2018-08-18T11:07:56.018Z,49.10
2018-08-18T11:10:26.966Z,49.80
2018-08-18T11:12:56.940Z,49.70
2018-08-18T11:15:26.943Z,50.20
2018-08-18T11:17:57.968Z,48.50
2018-08-18T11:20:28.551Z,46.10
2018-08-18T11:23:05.095Z,47.60
2018-08-18T11:25:40.053Z,47.10
2018-08-18T11:28:09.956Z,47.60
2018-08-18T11:30:39.130Z,45.70
2018-08-18T11:33:08.108Z,48.50
2018-08-18T11:35:38.567Z,45.60
2018-08-18T11:38:12.438Z,44.40
2018-08-18T11:40:41.641Z,46.30
2018-08-18T11:43:12.736Z,45.80
2018-08-18T11:45:42.495Z,47.40
2018-08-18T11:48:14.374Z,45.80
2018-08-18T11:50:43.802Z,45.60
2018-08-18T11:53:12.976Z,46.20
2018-08-18T11:55:42.353Z,46.90
2018-08-18T11:58:12.858Z,47.60
2018-08-18T12:00:47.392Z,46.60
2018-08-18T12:03:17.998Z,46.00
2018-08-18T12:05:50.353Z,45.70
2018-08-18T12:08:20.608Z,47.70
2018-08-18T12:10:51.093Z,45.20
2018-08-18T12:13:27.163Z,48.80
2018-08-18T12:16:03.000Z,45.50
2018-08-18T12:18:32.875Z,45.90
2018-08-18T12:23:40.526Z,46.10
2018-08-18T12:26:12.222Z,43.70
2018-08-18T12:28:44.195Z,45.10
2018-08-18T12:31:15.946Z,45.20
2018-08-18T12:33:45.419Z,44.70
2018-08-18T12:36:14.812Z,46.10
2018-08-18T12:38:49.823Z,43.00
2018-08-18T12:41:18.943Z,43.30
2018-08-18T12:43:50.189Z,43.90
2018-08-18T12:46:21.596Z,42.90
2018-08-18T12:48:52.957Z,46.80
2018-08-18T12:51:22.411Z,44.80
2018-08-18T12:53:54.862Z,43.30
2018-08-18T12:56:26.809Z,44.20
2018-08-18T12:58:56.181Z,45.40
2018-08-18T13:01:39.769Z,43.60
2018-08-18T13:04:12.166Z,43.70
2018-08-18T13:06:43.938Z,44.60
2018-08-18T13:09:14.935Z,44.60
2018-08-18T13:11:45.351Z,46.90
2018-08-18T13:14:18.997Z,45.80
2018-08-18T13:16:48.138Z,44.40
2018-08-18T13:19:19.583Z,44.80
2018-08-18T13:21:48.772Z,45.40
2018-08-18T13:24:18.867Z,44.10
2018-08-18T13:26:48.104Z,43.70
2018-08-18T13:29:17.487Z,43.50
2018-08-18T13:31:46.792Z,42.80
2018-08-18T13:34:17.091Z,42.80
2018-08-18T13:36:47.156Z,44.30
2018-08-18T13:39:19.737Z,45.00
2018-08-18T13:41:50.774Z,45.20
2018-08-18T13:44:26.684Z,46.20
2018-08-18T13:46:56.237Z,45.70
2018-08-18T13:49:26.412Z,44.90
2018-08-18T13:51:55.350Z,46.30
2018-08-18T13:54:24.892Z,45.50
2018-08-18T13:56:54.159Z,46.90
2018-08-18T13:59:39.025Z,44.00
2018-08-18T14:02:08.315Z,44.80
2018-08-18T14:04:40.385Z,45.10
2018-08-18T14:07:09.849Z,46.40
2018-08-18T14:09:40.765Z,44.70
2018-08-18T14:12:17.349Z,44.20
2018-08-18T14:14:47.038Z,44.40
2018-08-18T14:17:18.344Z,43.50
2018-08-18T14:19:47.552Z,42.60
2018-08-18T14:22:18.985Z,44.20
2018-08-18T14:24:47.851Z,43.30
2018-08-18T14:27:20.326Z,42.60
2018-08-18T14:29:49.163Z,46.00
2018-08-18T14:32:23.272Z,43.40
2018-08-18T14:34:56.700Z,43.60
2018-08-18T14:37:25.523Z,42.50
2018-08-18T14:39:54.581Z,44.30
2018-08-18T14:42:23.823Z,42.20
2018-08-18T14:44:55.813Z,43.50
2018-08-18T14:47:25.288Z,43.20
2018-08-18T14:50:09.629Z,42.00
2018-08-18T14:52:38.753Z,41.10
2018-08-18T14:55:07.635Z,42.30
2018-08-18T14:57:37.784Z,42.30
2018-08-18T15:00:07.129Z,42.90
2018-08-18T15:02:36.182Z,42.50
2018-08-18T15:05:05.156Z,41.90
2018-08-18T15:07:38.838Z,41.60
2018-08-18T15:10:07.649Z,42.80
2018-08-18T15:12:36.648Z,43.20
2018-08-18T15:15:05.685Z,43.20
2018-08-18T15:17:34.656Z,42.60
2018-08-18T15:20:03.726Z,44.10
2018-08-18T15:22:34.655Z,41.80
2018-08-18T15:25:03.525Z,42.10
2018-08-18T15:27:32.670Z,43.80
2018-08-18T15:30:05.627Z,42.60
2018-08-18T15:32:34.708Z,42.90
2018-08-18T15:35:03.676Z,42.00
2018-08-18T15:37:32.549Z,44.20
2018-08-18T15:40:01.458Z,44.50
2018-08-18T15:42:30.340Z,43.30
2018-08-18T15:45:04.411Z,43.80
2018-08-18T15:47:33.222Z,43.60
2018-08-18T15:50:02.197Z,44.00
2018-08-18T15:52:33.142Z,44.70
2018-08-18T15:55:03.756Z,42.70
2018-08-18T15:57:33.128Z,44.00
2018-08-18T16:00:02.227Z,42.20
2018-08-18T16:02:31.047Z,43.10
2018-08-18T16:04:59.934Z,42.80
2018-08-18T16:07:29.129Z,44.20
2018-08-18T16:09:57.910Z,41.80
2018-08-18T16:12:26.792Z,42.50
2018-08-18T16:14:55.657Z,42.00
2018-08-18T16:17:24.913Z,42.30
2018-08-18T16:19:53.795Z,43.50
2018-08-18T16:22:22.666Z,42.50
2018-08-18T16:24:51.544Z,42.10
2018-08-18T16:27:20.332Z,44.00
2018-08-18T16:29:49.772Z,43.70
2018-08-18T16:32:22.925Z,42.80
2018-08-18T16:35:13.312Z,42.60
2018-08-18T16:37:45.667Z,43.30
2018-08-18T16:40:14.843Z,46.50
2018-08-18T16:42:43.692Z,48.60
2018-08-18T16:45:13.506Z,49.10
2018-08-18T16:47:51.552Z,49.40
2018-08-18T16:50:20.716Z,49.70
2018-08-18T16:52:49.594Z,50.00
2018-08-18T16:55:18.420Z,51.10
2018-08-18T16:57:47.251Z,51.40
2018-08-18T17:00:16.084Z,50.50
2018-08-18T17:02:44.896Z,50.60
2018-08-18T17:05:13.846Z,50.20
2018-08-18T17:07:43.966Z,50.40
2018-08-18T17:10:13.502Z,51.20
2018-08-18T17:12:42.399Z,50.70
2018-08-18T17:15:11.208Z,51.50
2018-08-18T17:17:40.008Z,52.10
2018-08-18T17:20:09.689Z,51.50
2018-08-18T17:22:38.564Z,53.00
2018-08-18T17:25:08.868Z,54.00
2018-08-18T17:27:40.912Z,54.40
2018-08-18T17:30:09.726Z,54.90
2018-08-18T17:32:38.505Z,54.70
2018-08-18T17:35:07.432Z,54.10
2018-08-18T17:37:36.239Z,53.50
2018-08-18T17:40:05.567Z,54.30
2018-08-18T17:42:34.449Z,53.60
2018-08-18T17:45:03.208Z,54.10
2018-08-18T17:47:33.711Z,54.90
2018-08-18T17:50:02.731Z,55.90
2018-08-18T17:52:31.941Z,55.50
2018-08-18T17:55:15.981Z,55.80
2018-08-18T17:57:45.599Z,55.30
2018-08-18T18:00:22.575Z,55.30
2018-08-18T18:02:56.466Z,55.60
2018-08-18T18:05:27.873Z,55.40
2018-08-18T18:07:59.037Z,55.70
2018-08-18T18:10:29.914Z,55.80
2018-08-18T18:12:58.951Z,56.10
2018-08-18T18:15:38.044Z,55.20
2018-08-18T18:18:11.509Z,56.20
2018-08-18T18:20:40.424Z,55.90
2018-08-18T18:23:12.098Z,56.50
2018-08-18T18:25:40.981Z,56.20
2018-08-18T18:28:09.848Z,56.80
2018-08-18T18:30:39.381Z,57.00
2018-08-18T18:33:09.150Z,57.00
2018-08-18T18:35:37.995Z,57.30
2018-08-18T18:38:07.077Z,58.30
2018-08-18T18:40:39.262Z,58.40
2018-08-18T18:43:08.355Z,58.50
2018-08-18T18:45:37.271Z,58.50
2018-08-18T18:48:07.373Z,58.60
2018-08-18T18:50:37.096Z,59.80
2018-08-18T18:53:05.936Z,60.50
2018-08-18T18:55:41.210Z,60.50
2018-08-18T18:58:12.354Z,61.60
2018-08-18T19:00:45.500Z,61.10
2018-08-18T19:03:14.501Z,61.40
2018-08-18T19:05:47.536Z,61.90
2018-08-18T19:08:18.020Z,63.00
2018-08-18T19:10:47.160Z,61.90
2018-08-18T19:13:16.730Z,65.20
2018-08-18T19:15:46.623Z,65.90
2018-08-18T19:18:15.741Z,65.70
2018-08-18T19:20:44.605Z,66.90
2018-08-18T19:23:15.287Z,65.60
2018-08-18T19:25:45.441Z,64.70
2018-08-18T19:28:23.431Z,64.80
2018-08-18T19:30:52.376Z,65.60
2018-08-18T19:33:21.697Z,65.50
2018-08-18T19:35:52.970Z,64.70
2018-08-18T19:38:22.972Z,66.10
2018-08-18T19:40:54.238Z,66.70
2018-08-18T19:43:25.096Z,66.20
2018-08-18T19:45:54.569Z,65.70
2018-08-18T19:48:24.586Z,66.30
2018-08-18T19:53:33.949Z,67.10
2018-08-18T19:56:03.227Z,65.90
2018-08-18T19:58:32.341Z,66.80
2018-08-18T20:03:35.835Z,68.00
2018-08-18T20:06:15.903Z,67.00
2018-08-18T20:08:44.723Z,68.50
2018-08-18T20:11:13.597Z,69.80
2018-08-18T20:13:42.459Z,70.00
2018-08-18T20:16:11.309Z,70.20
2018-08-18T20:18:40.224Z,71.70
2018-08-18T20:21:09.006Z,72.40
2018-08-18T20:23:37.858Z,71.20
2018-08-18T20:26:06.758Z,71.80
2018-08-18T20:28:35.604Z,73.20
2018-08-18T20:31:04.494Z,74.70
2018-08-18T20:33:33.321Z,73.70
2018-08-18T20:36:02.521Z,74.30
2018-08-18T20:38:36.644Z,74.70
2018-08-18T20:41:05.464Z,74.70
2018-08-18T20:43:34.280Z,74.30
2018-08-18T20:46:03.173Z,73.40
2018-08-18T20:48:32.062Z,74.10
2018-08-18T20:51:01.383Z,75.10
2018-08-18T20:53:30.159Z,74.10
2018-08-18T20:56:01.623Z,74.80
2018-08-18T20:58:32.108Z,76.40
2018-08-18T21:01:01.496Z,76.90
2018-08-18T21:03:44.475Z,77.50
2018-08-18T21:06:15.116Z,77.20
2018-08-18T21:08:44.034Z,78.00
2018-08-18T21:11:12.880Z,79.00
2018-08-18T21:13:41.665Z,79.40
2018-08-18T21:16:10.613Z,78.50
2018-08-18T21:18:39.479Z,79.30
2018-08-18T21:21:26.003Z,79.50
2018-08-18T21:23:55.084Z,79.90
2018-08-18T21:26:24.026Z,78.80
2018-08-18T21:28:55.010Z,78.50
2018-08-18T21:31:29.088Z,79.30
2018-08-18T21:33:59.530Z,80.70
2018-08-18T21:36:28.614Z,80.40
2018-08-18T21:39:00.261Z,80.40
2018-08-18T21:41:30.265Z,81.20
2018-08-18T21:43:59.220Z,80.60
2018-08-18T21:46:28.081Z,80.30
2018-08-18T21:48:56.912Z,81.20
2018-08-18T21:51:27.014Z,81.70
2018-08-18T21:53:55.873Z,82.10
2018-08-18T21:56:24.797Z,83.10
2018-08-18T21:58:53.604Z,82.20
2018-08-18T22:01:23.964Z,83.10
2018-08-18T22:03:55.517Z,82.20
2018-08-18T22:06:24.534Z,81.60
2018-08-18T22:09:03.268Z,81.90
2018-08-18T22:11:32.189Z,82.60
2018-08-18T22:14:01.015Z,82.90
2018-08-18T22:16:29.853Z,82.30
2018-08-18T22:19:02.984Z,83.00
2018-08-18T22:21:32.463Z,83.60
2018-08-18T22:24:02.679Z,84.30
2018-08-18T22:26:31.512Z,83.40
2018-08-18T22:29:02.301Z,84.70
2018-08-18T22:31:35.190Z,85.20
2018-08-18T22:34:05.173Z,84.50
2018-08-18T22:36:35.212Z,84.40
2018-08-18T22:39:06.232Z,86.00
2018-08-18T22:41:35.039Z,86.10
2018-08-18T22:44:03.939Z,84.90
2018-08-18T22:46:39.108Z,84.10
2018-08-18T22:49:08.035Z,83.00
2018-08-18T22:51:36.875Z,84.30
2018-08-18T22:54:05.666Z,84.00
2018-08-18T22:56:35.695Z,83.20
2018-08-18T22:59:06.622Z,82.90
2018-08-18T23:01:36.993Z,84.20
2018-08-18T23:04:18.923Z,83.20
2018-08-18T23:06:49.667Z,82.10
2018-08-18T23:09:19.084Z,82.00
2018-08-18T23:11:48.167Z,83.00
2018-08-18T23:14:17.355Z,83.10
2018-08-18T23:16:46.512Z,81.90
2018-08-18T23:19:15.685Z,82.50
2018-08-18T23:24:28.496Z,82.50
2018-08-18T23:26:58.064Z,84.10
2018-08-18T23:29:27.573Z,83.60
2018-08-18T23:31:57.064Z,82.30
2018-08-18T23:34:26.260Z,82.60
2018-08-18T23:36:56.113Z,83.60
2018-08-18T23:39:25.234Z,82.40
2018-08-18T23:42:26.167Z,81.10
2018-08-18T23:44:55.751Z,80.70
2018-08-18T23:47:25.202Z,81.90
2018-08-18T23:49:54.274Z,83.00
2018-08-18T23:52:23.661Z,83.30
2018-08-18T23:54:53.044Z,83.30
2018-08-18T23:57:22.256Z,82.60
2018-08-18T23:59:51.662Z,81.80
